sensor_id;sensor_type;location;lat;lon;timestamp;P1;durP1;ratioP1;P2;durP2;ratioP2
29430;SDS011;16404;49.902;10.074;2023-03-23T00:02:23;5.00;;;1.70;;
29430;SDS011;16404;49.902;10.074;2023-03-23T00:05:08;3.35;;;2.35;;
29430;SDS011;16404;49.902;10.074;2023-03-23T00:07:53;3.63;;;2.22;;
29430;SDS011;16404;49.902;10.074;2023-03-23T00:10:39;1.92;;;1.75;;
29430;SDS011;16404;49.902;10.074;2023-03-23T00:13:24;3.42;;;1.90;;
29430;SDS011;16404;49.902;10.074;2023-03-23T00:16:09;4.00;;;1.85;;
29430;SDS011;16404;49.902;10.074;2023-03-23T00:19:02;2.67;;;1.50;;
29430;SDS011;16404;49.902;10.074;2023-03-23T00:21:47;5.25;;;1.60;;
29430;SDS011;16404;49.902;10.074;2023-03-23T00:24:32;2.97;;;1.60;;
29430;SDS011;16404;49.902;10.074;2023-03-23T00:27:17;2.50;;;1.60;;
29430;SDS011;16404;49.902;10.074;2023-03-23T00:30:03;4.00;;;1.80;;
29430;SDS011;16404;49.902;10.074;2023-03-23T00:32:47;1.65;;;1.48;;
29430;SDS011;16404;49.902;10.074;2023-03-23T00:35:32;2.05;;;1.58;;
29430;SDS011;16404;49.902;10.074;2023-03-23T00:38:19;3.20;;;1.58;;
29430;SDS011;16404;49.902;10.074;2023-03-23T00:41:04;2.80;;;1.80;;
29430;SDS011;16404;49.902;10.074;2023-03-23T00:43:50;3.80;;;2.10;;
29430;SDS011;16404;49.902;10.074;2023-03-23T00:46:35;4.03;;;2.17;;
29430;SDS011;16404;49.902;10.074;2023-03-23T00:49:28;3.70;;;2.00;;
29430;SDS011;16404;49.902;10.074;2023-03-23T00:52:13;6.25;;;2.30;;
29430;SDS011;16404;49.902;10.074;2023-03-23T00:54:57;4.47;;;1.80;;
29430;SDS011;16404;49.902;10.074;2023-03-23T00:57:42;3.15;;;2.10;;
29430;SDS011;16404;49.902;10.074;2023-03-23T01:00:27;3.08;;;1.80;;
29430;SDS011;16404;49.902;10.074;2023-03-23T01:03:11;3.72;;;1.92;;
29430;SDS011;16404;49.902;10.074;2023-03-23T01:06:05;5.22;;;2.40;;
29430;SDS011;16404;49.902;10.074;2023-03-23T01:08:59;3.20;;;1.95;;
29430;SDS011;16404;49.902;10.074;2023-03-23T01:11:46;2.45;;;1.90;;
29430;SDS011;16404;49.902;10.074;2023-03-23T01:14:32;4.47;;;1.83;;
29430;SDS011;16404;49.902;10.074;2023-03-23T01:17:16;3.35;;;1.95;;
29430;SDS011;16404;49.902;10.074;2023-03-23T01:20:02;4.57;;;2.10;;
29430;SDS011;16404;49.902;10.074;2023-03-23T01:22:48;2.55;;;1.77;;
29430;SDS011;16404;49.902;10.074;2023-03-23T01:25:36;4.72;;;1.90;;
29430;SDS011;16404;49.902;10.074;2023-03-23T01:28:20;3.72;;;2.33;;
29430;SDS011;16404;49.902;10.074;2023-03-23T01:31:06;5.45;;;2.55;;
29430;SDS011;16404;49.902;10.074;2023-03-23T01:33:53;2.15;;;1.90;;
29430;SDS011;16404;49.902;10.074;2023-03-23T01:36:40;2.97;;;2.08;;
29430;SDS011;16404;49.902;10.074;2023-03-23T01:42:09;3.28;;;1.73;;
29430;SDS011;16404;49.902;10.074;2023-03-23T01:47:38;3.13;;;2.10;;
29430;SDS011;16404;49.902;10.074;2023-03-23T01:55:55;5.13;;;2.30;;
29430;SDS011;16404;49.902;10.074;2023-03-23T01:58:42;3.47;;;2.25;;
29430;SDS011;16404;49.902;10.074;2023-03-23T02:01:26;4.97;;;2.40;;
29430;SDS011;16404;49.902;10.074;2023-03-23T02:04:12;6.13;;;2.75;;
29430;SDS011;16404;49.902;10.074;2023-03-23T02:06:59;4.25;;;2.40;;
29430;SDS011;16404;49.902;10.074;2023-03-23T02:09:46;5.70;;;2.35;;
29430;SDS011;16404;49.902;10.074;2023-03-23T02:12:31;5.57;;;2.40;;
29430;SDS011;16404;49.902;10.074;2023-03-23T02:18:12;3.83;;;2.50;;
29430;SDS011;16404;49.902;10.074;2023-03-23T02:34:01;8.02;;;2.35;;
29430;SDS011;16404;49.902;10.074;2023-03-23T02:39:57;6.18;;;2.65;;
29430;SDS011;16404;49.902;10.074;2023-03-23T02:42:55;3.65;;;2.22;;
29430;SDS011;16404;49.902;10.074;2023-03-23T02:45:43;4.57;;;2.42;;
29430;SDS011;16404;49.902;10.074;2023-03-23T02:48:29;3.55;;;2.55;;
29430;SDS011;16404;49.902;10.074;2023-03-23T02:51:15;4.45;;;2.28;;
29430;SDS011;16404;49.902;10.074;2023-03-23T02:54:00;3.75;;;2.35;;
29430;SDS011;16404;49.902;10.074;2023-03-23T02:56:46;2.15;;;1.75;;
29430;SDS011;16404;49.902;10.074;2023-03-23T02:59:40;4.22;;;2.25;;
29430;SDS011;16404;49.902;10.074;2023-03-23T03:02:32;2.97;;;1.95;;
29430;SDS011;16404;49.902;10.074;2023-03-23T03:11:35;1.88;;;1.50;;
29430;SDS011;16404;49.902;10.074;2023-03-23T03:14:28;1.73;;;1.40;;
29430;SDS011;16404;49.902;10.074;2023-03-23T03:17:20;2.22;;;1.55;;
29430;SDS011;16404;49.902;10.074;2023-03-23T03:20:09;4.68;;;1.90;;
29430;SDS011;16404;49.902;10.074;2023-03-23T03:22:57;3.38;;;1.45;;
29430;SDS011;16404;49.902;10.074;2023-03-23T03:25:45;2.00;;;1.50;;
29430;SDS011;16404;49.902;10.074;2023-03-23T03:28:40;3.33;;;1.80;;
29430;SDS011;16404;49.902;10.074;2023-03-23T03:31:27;2.20;;;1.70;;
29430;SDS011;16404;49.902;10.074;2023-03-23T03:34:16;2.35;;;1.40;;
29430;SDS011;16404;49.902;10.074;2023-03-23T03:37:04;5.30;;;1.83;;
29430;SDS011;16404;49.902;10.074;2023-03-23T03:39:51;2.22;;;1.55;;
29430;SDS011;16404;49.902;10.074;2023-03-23T03:42:40;2.45;;;1.63;;
29430;SDS011;16404;49.902;10.074;2023-03-23T03:45:26;2.30;;;1.65;;
29430;SDS011;16404;49.902;10.074;2023-03-23T03:48:11;3.45;;;1.60;;
29430;SDS011;16404;49.902;10.074;2023-03-23T03:50:55;2.00;;;1.47;;
29430;SDS011;16404;49.902;10.074;2023-03-23T03:53:40;2.38;;;1.75;;
29430;SDS011;16404;49.902;10.074;2023-03-23T03:56:25;3.28;;;1.77;;
29430;SDS011;16404;49.902;10.074;2023-03-23T03:59:29;2.42;;;1.80;;
29430;SDS011;16404;49.902;10.074;2023-03-23T04:02:49;2.60;;;1.73;;
29430;SDS011;16404;49.902;10.074;2023-03-23T04:05:49;2.67;;;1.70;;
29430;SDS011;16404;49.902;10.074;2023-03-23T04:08:35;4.28;;;1.80;;
29430;SDS011;16404;49.902;10.074;2023-03-23T04:11:22;6.00;;;1.80;;
29430;SDS011;16404;49.902;10.074;2023-03-23T04:14:07;2.88;;;1.83;;
29430;SDS011;16404;49.902;10.074;2023-03-23T04:16:59;3.22;;;1.77;;
29430;SDS011;16404;49.902;10.074;2023-03-23T04:19:44;3.55;;;1.48;;
29430;SDS011;16404;49.902;10.074;2023-03-23T04:22:32;5.43;;;1.65;;
29430;SDS011;16404;49.902;10.074;2023-03-23T04:25:18;2.88;;;1.80;;
29430;SDS011;16404;49.902;10.074;2023-03-23T04:28:08;2.72;;;1.70;;
29430;SDS011;16404;49.902;10.074;2023-03-23T04:31:00;2.80;;;1.80;;
29430;SDS011;16404;49.902;10.074;2023-03-23T04:33:46;1.73;;;1.35;;
29430;SDS011;16404;49.902;10.074;2023-03-23T04:36:32;2.42;;;1.70;;
29430;SDS011;16404;49.902;10.074;2023-03-23T04:39:26;2.30;;;1.45;;
29430;SDS011;16404;49.902;10.074;2023-03-23T04:42:13;1.48;;;1.35;;
29430;SDS011;16404;49.902;10.074;2023-03-23T04:45:35;2.72;;;1.77;;
29430;SDS011;16404;49.902;10.074;2023-03-23T04:48:22;2.78;;;1.73;;
29430;SDS011;16404;49.902;10.074;2023-03-23T04:51:20;5.35;;;2.13;;
29430;SDS011;16404;49.902;10.074;2023-03-23T04:54:07;3.38;;;1.80;;
29430;SDS011;16404;49.902;10.074;2023-03-23T04:56:53;4.18;;;1.83;;
29430;SDS011;16404;49.902;10.074;2023-03-23T04:59:37;5.63;;;2.55;;
29430;SDS011;16404;49.902;10.074;2023-03-23T05:02:27;4.03;;;2.15;;
29430;SDS011;16404;49.902;10.074;2023-03-23T05:05:14;5.50;;;2.30;;
29430;SDS011;16404;49.902;10.074;2023-03-23T05:07:58;3.47;;;2.20;;
29430;SDS011;16404;49.902;10.074;2023-03-23T05:10:53;3.85;;;2.20;;
29430;SDS011;16404;49.902;10.074;2023-03-23T05:13:42;2.95;;;1.60;;
29430;SDS011;16404;49.902;10.074;2023-03-23T05:16:29;3.30;;;1.90;;
29430;SDS011;16404;49.902;10.074;2023-03-23T05:21:59;2.55;;;1.98;;
29430;SDS011;16404;49.902;10.074;2023-03-23T05:24:49;2.47;;;1.83;;
29430;SDS011;16404;49.902;10.074;2023-03-23T05:27:36;2.92;;;1.90;;
29430;SDS011;16404;49.902;10.074;2023-03-23T05:30:32;5.00;;;2.40;;
29430;SDS011;16404;49.902;10.074;2023-03-23T05:33:16;5.90;;;2.67;;
29430;SDS011;16404;49.902;10.074;2023-03-23T05:36:07;4.82;;;2.90;;
29430;SDS011;16404;49.902;10.074;2023-03-23T05:39:14;5.65;;;3.25;;
29430;SDS011;16404;49.902;10.074;2023-03-23T05:42:29;10.02;;;5.00;;
29430;SDS011;16404;49.902;10.074;2023-03-23T05:45:21;4.68;;;3.08;;
29430;SDS011;16404;49.902;10.074;2023-03-23T05:48:08;4.97;;;2.35;;
29430;SDS011;16404;49.902;10.074;2023-03-23T05:50:53;2.60;;;1.98;;
29430;SDS011;16404;49.902;10.074;2023-03-23T05:53:40;3.92;;;2.20;;
29430;SDS011;16404;49.902;10.074;2023-03-23T05:56:26;4.47;;;2.30;;
29430;SDS011;16404;49.902;10.074;2023-03-23T05:59:37;2.95;;;2.17;;
29430;SDS011;16404;49.902;10.074;2023-03-23T06:02:24;2.45;;;1.67;;
29430;SDS011;16404;49.902;10.074;2023-03-23T06:05:12;3.47;;;2.65;;
29430;SDS011;16404;49.902;10.074;2023-03-23T06:08:02;2.63;;;2.30;;
29430;SDS011;16404;49.902;10.074;2023-03-23T06:10:47;5.22;;;2.50;;
29430;SDS011;16404;49.902;10.074;2023-03-23T06:16:23;4.53;;;1.70;;
29430;SDS011;16404;49.902;10.074;2023-03-23T06:19:14;5.18;;;2.28;;
29430;SDS011;16404;49.902;10.074;2023-03-23T06:22:07;7.43;;;2.30;;
29430;SDS011;16404;49.902;10.074;2023-03-23T06:25:21;4.18;;;2.30;;
29430;SDS011;16404;49.902;10.074;2023-03-23T06:28:08;8.82;;;3.85;;
29430;SDS011;16404;49.902;10.074;2023-03-23T06:31:00;6.32;;;2.88;;
29430;SDS011;16404;49.902;10.074;2023-03-23T06:33:48;6.97;;;3.22;;
29430;SDS011;16404;49.902;10.074;2023-03-23T06:36:42;6.55;;;2.38;;
29430;SDS011;16404;49.902;10.074;2023-03-23T06:39:33;4.32;;;2.38;;
29430;SDS011;16404;49.902;10.074;2023-03-23T06:42:40;4.07;;;2.00;;
29430;SDS011;16404;49.902;10.074;2023-03-23T06:45:53;3.58;;;2.50;;
29430;SDS011;16404;49.902;10.074;2023-03-23T06:48:43;4.15;;;2.60;;
29430;SDS011;16404;49.902;10.074;2023-03-23T06:51:34;3.55;;;2.55;;
29430;SDS011;16404;49.902;10.074;2023-03-23T06:54:19;3.95;;;2.70;;
29430;SDS011;16404;49.902;10.074;2023-03-23T06:57:04;2.85;;;2.53;;
29430;SDS011;16404;49.902;10.074;2023-03-23T07:02:33;4.90;;;2.50;;
29430;SDS011;16404;49.902;10.074;2023-03-23T07:05:18;9.27;;;5.22;;
29430;SDS011;16404;49.902;10.074;2023-03-23T07:08:06;6.25;;;3.50;;
29430;SDS011;16404;49.902;10.074;2023-03-23T07:10:59;5.25;;;2.42;;
29430;SDS011;16404;49.902;10.074;2023-03-23T07:13:45;5.13;;;2.67;;
29430;SDS011;16404;49.902;10.074;2023-03-23T07:16:31;5.18;;;2.53;;
29430;SDS011;16404;49.902;10.074;2023-03-23T07:19:16;5.78;;;2.33;;
29430;SDS011;16404;49.902;10.074;2023-03-23T07:22:01;4.97;;;2.55;;
29430;SDS011;16404;49.902;10.074;2023-03-23T07:24:48;4.90;;;2.40;;
29430;SDS011;16404;49.902;10.074;2023-03-23T07:27:37;2.25;;;2.05;;
29430;SDS011;16404;49.902;10.074;2023-03-23T07:30:23;3.90;;;2.20;;
29430;SDS011;16404;49.902;10.074;2023-03-23T07:33:08;2.83;;;2.22;;
29430;SDS011;16404;49.902;10.074;2023-03-23T07:35:53;3.22;;;1.90;;
29430;SDS011;16404;49.902;10.074;2023-03-23T07:38:39;2.53;;;2.05;;
29430;SDS011;16404;49.902;10.074;2023-03-23T07:41:23;2.38;;;1.73;;
29430;SDS011;16404;49.902;10.074;2023-03-23T07:44:10;3.75;;;1.70;;
29430;SDS011;16404;49.902;10.074;2023-03-23T07:46:54;3.53;;;2.00;;
29430;SDS011;16404;49.902;10.074;2023-03-23T07:49:47;2.92;;;1.73;;
29430;SDS011;16404;49.902;10.074;2023-03-23T07:52:42;2.75;;;1.80;;
29430;SDS011;16404;49.902;10.074;2023-03-23T07:55:26;2.88;;;1.95;;
29430;SDS011;16404;49.902;10.074;2023-03-23T07:58:21;2.47;;;1.92;;
29430;SDS011;16404;49.902;10.074;2023-03-23T08:01:11;5.60;;;2.20;;
29430;SDS011;16404;49.902;10.074;2023-03-23T08:03:57;3.88;;;1.85;;
29430;SDS011;16404;49.902;10.074;2023-03-23T08:07:00;5.50;;;2.00;;
29430;SDS011;16404;49.902;10.074;2023-03-23T08:09:57;2.75;;;2.25;;
29430;SDS011;16404;49.902;10.074;2023-03-23T08:13:14;3.65;;;2.05;;
29430;SDS011;16404;49.902;10.074;2023-03-23T08:16:18;2.33;;;1.77;;
29430;SDS011;16404;49.902;10.074;2023-03-23T08:19:26;2.75;;;1.83;;
29430;SDS011;16404;49.902;10.074;2023-03-23T08:22:31;3.45;;;1.50;;
29430;SDS011;16404;49.902;10.074;2023-03-23T08:25:42;2.13;;;1.38;;
29430;SDS011;16404;49.902;10.074;2023-03-23T08:28:45;2.38;;;1.60;;
29430;SDS011;16404;49.902;10.074;2023-03-23T08:32:00;2.30;;;1.38;;
29430;SDS011;16404;49.902;10.074;2023-03-23T08:35:10;6.50;;;3.05;;
29430;SDS011;16404;49.902;10.074;2023-03-23T08:38:15;5.50;;;1.90;;
29430;SDS011;16404;49.902;10.074;2023-03-23T08:41:28;3.10;;;1.50;;
29430;SDS011;16404;49.902;10.074;2023-03-23T08:44:42;3.42;;;1.70;;
29430;SDS011;16404;49.902;10.074;2023-03-23T08:47:50;3.15;;;1.90;;
29430;SDS011;16404;49.902;10.074;2023-03-23T08:50:46;1.48;;;1.35;;
29430;SDS011;16404;49.902;10.074;2023-03-23T08:53:34;2.95;;;1.70;;
29430;SDS011;16404;49.902;10.074;2023-03-23T08:56:41;2.70;;;1.67;;
29430;SDS011;16404;49.902;10.074;2023-03-23T08:59:42;2.65;;;1.65;;
29430;SDS011;16404;49.902;10.074;2023-03-23T09:02:35;7.32;;;2.25;;
29430;SDS011;16404;49.902;10.074;2023-03-23T09:08:35;2.42;;;1.83;;
29430;SDS011;16404;49.902;10.074;2023-03-23T09:11:19;4.35;;;1.60;;
29430;SDS011;16404;49.902;10.074;2023-03-23T09:14:06;6.10;;;1.92;;
29430;SDS011;16404;49.902;10.074;2023-03-23T09:16:52;3.22;;;1.65;;
29430;SDS011;16404;49.902;10.074;2023-03-23T09:19:36;3.80;;;1.80;;
29430;SDS011;16404;49.902;10.074;2023-03-23T09:22:21;2.53;;;2.00;;
29430;SDS011;16404;49.902;10.074;2023-03-23T09:25:07;3.05;;;2.10;;
29430;SDS011;16404;49.902;10.074;2023-03-23T09:27:53;2.75;;;1.98;;
29430;SDS011;16404;49.902;10.074;2023-03-23T09:30:40;2.10;;;1.90;;
29430;SDS011;16404;49.902;10.074;2023-03-23T09:33:25;5.45;;;3.30;;
29430;SDS011;16404;49.902;10.074;2023-03-23T09:36:09;14.00;;;3.25;;
29430;SDS011;16404;49.902;10.074;2023-03-23T09:38:56;8.07;;;2.50;;
29430;SDS011;16404;49.902;10.074;2023-03-23T09:48:05;2.35;;;1.60;;
29430;SDS011;16404;49.902;10.074;2023-03-23T09:56:59;2.90;;;1.67;;
29430;SDS011;16404;49.902;10.074;2023-03-23T09:59:51;5.82;;;1.80;;
29430;SDS011;16404;49.902;10.074;2023-03-23T10:03:00;1.95;;;1.42;;
29430;SDS011;16404;49.902;10.074;2023-03-23T10:05:58;3.30;;;1.73;;
29430;SDS011;16404;49.902;10.074;2023-03-23T10:08:44;3.83;;;2.00;;
29430;SDS011;16404;49.902;10.074;2023-03-23T10:18:02;5.25;;;2.17;;
29430;SDS011;16404;49.902;10.074;2023-03-23T10:20:55;3.95;;;1.77;;
29430;SDS011;16404;49.902;10.074;2023-03-23T10:23:53;3.63;;;2.28;;
29430;SDS011;16404;49.902;10.074;2023-03-23T10:26:58;3.58;;;1.63;;
29430;SDS011;16404;49.902;10.074;2023-03-23T10:29:59;2.97;;;1.70;;
29430;SDS011;16404;49.902;10.074;2023-03-23T10:33:29;3.65;;;1.70;;
29430;SDS011;16404;49.902;10.074;2023-03-23T10:36:26;3.90;;;1.70;;
29430;SDS011;16404;49.902;10.074;2023-03-23T10:39:24;2.15;;;1.27;;
29430;SDS011;16404;49.902;10.074;2023-03-23T10:42:21;1.60;;;1.30;;
29430;SDS011;16404;49.902;10.074;2023-03-23T10:45:16;4.45;;;2.10;;
29430;SDS011;16404;49.902;10.074;2023-03-23T10:50:55;2.25;;;1.63;;
29430;SDS011;16404;49.902;10.074;2023-03-23T10:53:45;2.10;;;1.60;;
29430;SDS011;16404;49.902;10.074;2023-03-23T10:56:35;3.85;;;1.92;;
29430;SDS011;16404;49.902;10.074;2023-03-23T10:59:29;2.33;;;1.88;;
29430;SDS011;16404;49.902;10.074;2023-03-23T11:02:17;2.33;;;1.23;;
29430;SDS011;16404;49.902;10.074;2023-03-23T11:05:03;4.32;;;1.48;;
29430;SDS011;16404;49.902;10.074;2023-03-23T11:08:00;1.48;;;1.30;;
29430;SDS011;16404;49.902;10.074;2023-03-23T11:10:50;4.38;;;1.60;;
29430;SDS011;16404;49.902;10.074;2023-03-23T11:13:57;4.65;;;1.23;;
29430;SDS011;16404;49.902;10.074;2023-03-23T11:16:50;1.25;;;1.15;;
29430;SDS011;16404;49.902;10.074;2023-03-23T11:19:37;0.82;;;0.82;;
29430;SDS011;16404;49.902;10.074;2023-03-23T11:22:28;2.75;;;1.17;;
29430;SDS011;16404;49.902;10.074;2023-03-23T11:25:15;1.50;;;1.13;;
29430;SDS011;16404;49.902;10.074;2023-03-23T11:28:00;0.95;;;0.90;;
29430;SDS011;16404;49.902;10.074;2023-03-23T11:30:45;1.55;;;1.13;;
29430;SDS011;16404;49.902;10.074;2023-03-23T11:33:30;1.27;;;1.05;;
29430;SDS011;16404;49.902;10.074;2023-03-23T11:36:28;3.58;;;1.00;;
29430;SDS011;16404;49.902;10.074;2023-03-23T11:39:22;2.30;;;1.05;;
29430;SDS011;16404;49.902;10.074;2023-03-23T11:42:17;2.22;;;0.98;;
29430;SDS011;16404;49.902;10.074;2023-03-23T11:48:25;1.80;;;1.20;;
29430;SDS011;16404;49.902;10.074;2023-03-23T11:56:55;1.13;;;0.93;;
29430;SDS011;16404;49.902;10.074;2023-03-23T12:05:47;1.00;;;1.00;;
29430;SDS011;16404;49.902;10.074;2023-03-23T12:21:00;1.13;;;0.95;;
29430;SDS011;16404;49.902;10.074;2023-03-23T12:30:30;3.67;;;1.30;;
29430;SDS011;16404;49.902;10.074;2023-03-23T12:42:54;2.70;;;1.60;;
29430;SDS011;16404;49.902;10.074;2023-03-23T12:55:27;4.65;;;1.92;;
29430;SDS011;16404;49.902;10.074;2023-03-23T12:58:26;2.83;;;1.80;;
29430;SDS011;16404;49.902;10.074;2023-03-23T13:01:23;4.30;;;1.92;;
29430;SDS011;16404;49.902;10.074;2023-03-23T13:04:55;3.30;;;1.80;;
29430;SDS011;16404;49.902;10.074;2023-03-23T13:07:23;3.65;;;2.00;;
29430;SDS011;16404;49.902;10.074;2023-03-23T13:10:19;3.55;;;1.92;;
29430;SDS011;16404;49.902;10.074;2023-03-23T13:16:46;4.03;;;1.63;;
29430;SDS011;16404;49.902;10.074;2023-03-23T13:19:06;3.85;;;1.75;;
29430;SDS011;16404;49.902;10.074;2023-03-23T13:24:55;3.55;;;1.60;;
29430;SDS011;16404;49.902;10.074;2023-03-23T13:27:44;4.57;;;1.55;;
29430;SDS011;16404;49.902;10.074;2023-03-23T13:30:41;3.65;;;1.40;;
29430;SDS011;16404;49.902;10.074;2023-03-23T13:33:46;1.20;;;1.10;;
29430;SDS011;16404;49.902;10.074;2023-03-23T13:36:35;1.20;;;1.10;;
29430;SDS011;16404;49.902;10.074;2023-03-23T13:42:50;1.35;;;1.20;;
29430;SDS011;16404;49.902;10.074;2023-03-23T13:48:27;2.05;;;1.38;;
29430;SDS011;16404;49.902;10.074;2023-03-23T14:00:33;1.67;;;1.20;;
29430;SDS011;16404;49.902;10.074;2023-03-23T14:03:35;2.22;;;1.20;;
29430;SDS011;16404;49.902;10.074;2023-03-23T14:06:22;2.03;;;1.10;;
29430;SDS011;16404;49.902;10.074;2023-03-23T14:09:32;0.93;;;0.90;;
29430;SDS011;16404;49.902;10.074;2023-03-23T14:12:26;1.83;;;1.10;;
29430;SDS011;16404;49.902;10.074;2023-03-23T14:15:12;1.23;;;1.13;;
29430;SDS011;16404;49.902;10.074;2023-03-23T14:17:58;5.60;;;2.00;;
29430;SDS011;16404;49.902;10.074;2023-03-23T14:20:47;2.50;;;1.02;;
29430;SDS011;16404;49.902;10.074;2023-03-23T14:23:32;2.60;;;1.20;;
29430;SDS011;16404;49.902;10.074;2023-03-23T14:26:19;1.80;;;1.20;;
29430;SDS011;16404;49.902;10.074;2023-03-23T14:29:04;0.80;;;0.80;;
29430;SDS011;16404;49.902;10.074;2023-03-23T14:31:56;1.35;;;1.25;;
29430;SDS011;16404;49.902;10.074;2023-03-23T14:34:42;11.25;;;2.63;;
29430;SDS011;16404;49.902;10.074;2023-03-23T14:37:30;3.40;;;1.48;;
29430;SDS011;16404;49.902;10.074;2023-03-23T14:40:16;2.40;;;1.88;;
29430;SDS011;16404;49.902;10.074;2023-03-23T14:43:02;3.38;;;2.20;;
29430;SDS011;16404;49.902;10.074;2023-03-23T14:45:50;4.35;;;2.38;;
29430;SDS011;16404;49.902;10.074;2023-03-23T14:48:37;5.32;;;2.72;;
29430;SDS011;16404;49.902;10.074;2023-03-23T14:54:07;2.83;;;1.30;;
29430;SDS011;16404;49.902;10.074;2023-03-23T14:56:52;3.20;;;1.25;;
29430;SDS011;16404;49.902;10.074;2023-03-23T14:59:42;1.15;;;0.98;;
29430;SDS011;16404;49.902;10.074;2023-03-23T15:05:40;2.03;;;1.10;;
29430;SDS011;16404;49.902;10.074;2023-03-23T15:08:25;1.77;;;1.20;;
29430;SDS011;16404;49.902;10.074;2023-03-23T15:14:23;2.13;;;1.23;;
29430;SDS011;16404;49.902;10.074;2023-03-23T15:17:09;2.33;;;1.30;;
29430;SDS011;16404;49.902;10.074;2023-03-23T15:20:19;1.50;;;1.17;;
29430;SDS011;16404;49.902;10.074;2023-03-23T15:23:08;1.25;;;1.02;;
29430;SDS011;16404;49.902;10.074;2023-03-23T15:29:26;1.95;;;1.00;;
29430;SDS011;16404;49.902;10.074;2023-03-23T15:32:11;3.20;;;1.03;;
29430;SDS011;16404;49.902;10.074;2023-03-23T15:34:56;1.35;;;0.90;;
29430;SDS011;16404;49.902;10.074;2023-03-23T15:38:03;2.55;;;1.00;;
29430;SDS011;16404;49.902;10.074;2023-03-23T15:40:54;1.83;;;1.63;;
29430;SDS011;16404;49.902;10.074;2023-03-23T15:43:51;1.00;;;0.90;;
29430;SDS011;16404;49.902;10.074;2023-03-23T15:46:51;2.35;;;1.10;;
29430;SDS011;16404;49.902;10.074;2023-03-23T15:49:45;1.92;;;1.02;;
29430;SDS011;16404;49.902;10.074;2023-03-23T15:52:30;2.67;;;1.10;;
29430;SDS011;16404;49.902;10.074;2023-03-23T15:55:18;1.88;;;1.27;;
29430;SDS011;16404;49.902;10.074;2023-03-23T15:58:11;1.75;;;1.13;;
29430;SDS011;16404;49.902;10.074;2023-03-23T16:00:56;4.63;;;1.20;;
29430;SDS011;16404;49.902;10.074;2023-03-23T16:03:44;0.85;;;0.73;;
29430;SDS011;16404;49.902;10.074;2023-03-23T16:06:32;1.45;;;1.35;;
29430;SDS011;16404;49.902;10.074;2023-03-23T16:09:18;0.88;;;0.88;;
29430;SDS011;16404;49.902;10.074;2023-03-23T16:12:03;1.60;;;1.30;;
29430;SDS011;16404;49.902;10.074;2023-03-23T16:14:48;3.17;;;1.60;;
29430;SDS011;16404;49.902;10.074;2023-03-23T16:17:32;0.90;;;0.90;;
29430;SDS011;16404;49.902;10.074;2023-03-23T16:20:18;3.22;;;1.13;;
29430;SDS011;16404;49.902;10.074;2023-03-23T16:23:04;2.40;;;1.27;;
29430;SDS011;16404;49.902;10.074;2023-03-23T16:25:49;2.20;;;1.70;;
29430;SDS011;16404;49.902;10.074;2023-03-23T16:28:34;2.65;;;1.23;;
29430;SDS011;16404;49.902;10.074;2023-03-23T16:31:18;3.10;;;1.90;;
29430;SDS011;16404;49.902;10.074;2023-03-23T16:34:03;1.45;;;1.30;;
29430;SDS011;16404;49.902;10.074;2023-03-23T16:36:48;1.67;;;1.08;;
29430;SDS011;16404;49.902;10.074;2023-03-23T16:39:33;2.60;;;1.25;;
29430;SDS011;16404;49.902;10.074;2023-03-23T16:42:17;1.60;;;1.48;;
29430;SDS011;16404;49.902;10.074;2023-03-23T16:45:02;1.73;;;1.33;;
29430;SDS011;16404;49.902;10.074;2023-03-23T16:47:46;3.67;;;1.50;;
29430;SDS011;16404;49.902;10.074;2023-03-23T16:50:31;1.92;;;1.60;;
29430;SDS011;16404;49.902;10.074;2023-03-23T16:53:16;2.85;;;1.30;;
29430;SDS011;16404;49.902;10.074;2023-03-23T16:56:01;4.32;;;2.55;;
29430;SDS011;16404;49.902;10.074;2023-03-23T17:01:31;2.58;;;2.03;;
29430;SDS011;16404;49.902;10.074;2023-03-23T17:04:15;2.15;;;1.70;;
29430;SDS011;16404;49.902;10.074;2023-03-23T17:07:00;4.35;;;3.35;;
29430;SDS011;16404;49.902;10.074;2023-03-23T17:09:44;12.30;;;8.10;;
29430;SDS011;16404;49.902;10.074;2023-03-23T17:12:29;6.25;;;4.28;;
29430;SDS011;16404;49.902;10.074;2023-03-23T17:15:14;4.15;;;2.15;;
29430;SDS011;16404;49.902;10.074;2023-03-23T17:17:59;7.78;;;4.68;;
29430;SDS011;16404;49.902;10.074;2023-03-23T17:20:44;14.10;;;7.72;;
29430;SDS011;16404;49.902;10.074;2023-03-23T17:23:29;5.40;;;3.40;;
29430;SDS011;16404;49.902;10.074;2023-03-23T17:26:13;21.65;;;13.20;;
29430;SDS011;16404;49.902;10.074;2023-03-23T17:28:58;9.95;;;7.00;;
29430;SDS011;16404;49.902;10.074;2023-03-23T17:31:43;5.20;;;3.28;;
29430;SDS011;16404;49.902;10.074;2023-03-23T17:37:12;4.47;;;2.33;;
29430;SDS011;16404;49.902;10.074;2023-03-23T17:39:56;3.13;;;2.20;;
29430;SDS011;16404;49.902;10.074;2023-03-23T17:42:41;3.35;;;2.45;;
29430;SDS011;16404;49.902;10.074;2023-03-23T17:45:26;4.00;;;2.40;;
29430;SDS011;16404;49.902;10.074;2023-03-23T17:48:10;4.28;;;2.72;;
29430;SDS011;16404;49.902;10.074;2023-03-23T17:50:55;4.78;;;2.50;;
29430;SDS011;16404;49.902;10.074;2023-03-23T17:53:40;5.68;;;3.00;;
29430;SDS011;16404;49.902;10.074;2023-03-23T17:56:25;5.18;;;3.00;;
29430;SDS011;16404;49.902;10.074;2023-03-23T17:59:09;4.05;;;2.58;;
29430;SDS011;16404;49.902;10.074;2023-03-23T18:01:55;4.15;;;3.35;;
29430;SDS011;16404;49.902;10.074;2023-03-23T18:04:40;2.95;;;2.33;;
29430;SDS011;16404;49.902;10.074;2023-03-23T18:07:25;5.05;;;3.28;;
29430;SDS011;16404;49.902;10.074;2023-03-23T18:10:10;10.52;;;4.65;;
29430;SDS011;16404;49.902;10.074;2023-03-23T18:15:41;6.25;;;3.40;;
29430;SDS011;16404;49.902;10.074;2023-03-23T18:18:27;9.30;;;4.47;;
29430;SDS011;16404;49.902;10.074;2023-03-23T18:21:11;8.75;;;4.53;;
29430;SDS011;16404;49.902;10.074;2023-03-23T18:23:56;12.65;;;5.90;;
29430;SDS011;16404;49.902;10.074;2023-03-23T18:26:40;13.30;;;9.50;;
29430;SDS011;16404;49.902;10.074;2023-03-23T18:29:25;7.82;;;2.97;;
29430;SDS011;16404;49.902;10.074;2023-03-23T18:32:09;4.32;;;3.30;;
29430;SDS011;16404;49.902;10.074;2023-03-23T18:34:54;5.63;;;3.63;;
29430;SDS011;16404;49.902;10.074;2023-03-23T18:37:39;7.28;;;3.65;;
29430;SDS011;16404;49.902;10.074;2023-03-23T18:40:24;8.10;;;4.55;;
29430;SDS011;16404;49.902;10.074;2023-03-23T18:43:08;13.35;;;5.43;;
29430;SDS011;16404;49.902;10.074;2023-03-23T18:45:54;11.50;;;4.80;;
29430;SDS011;16404;49.902;10.074;2023-03-23T18:48:39;9.30;;;4.20;;
29430;SDS011;16404;49.902;10.074;2023-03-23T18:51:24;6.15;;;3.75;;
29430;SDS011;16404;49.902;10.074;2023-03-23T18:54:09;11.35;;;5.78;;
29430;SDS011;16404;49.902;10.074;2023-03-23T18:56:53;9.80;;;4.90;;
29430;SDS011;16404;49.902;10.074;2023-03-23T18:59:38;6.28;;;4.05;;
29430;SDS011;16404;49.902;10.074;2023-03-23T19:02:23;5.57;;;3.85;;
29430;SDS011;16404;49.902;10.074;2023-03-23T19:05:08;9.23;;;5.22;;
29430;SDS011;16404;49.902;10.074;2023-03-23T19:07:53;8.18;;;5.40;;
29430;SDS011;16404;49.902;10.074;2023-03-23T19:10:39;6.65;;;4.40;;
29430;SDS011;16404;49.902;10.074;2023-03-23T19:13:26;5.50;;;3.42;;
29430;SDS011;16404;49.902;10.074;2023-03-23T19:16:12;4.72;;;3.67;;
29430;SDS011;16404;49.902;10.074;2023-03-23T19:18:56;5.60;;;3.73;;
29430;SDS011;16404;49.902;10.074;2023-03-23T19:21:41;13.88;;;5.15;;
29430;SDS011;16404;49.902;10.074;2023-03-23T19:24:26;9.88;;;4.80;;
29430;SDS011;16404;49.902;10.074;2023-03-23T19:27:12;7.50;;;4.78;;
29430;SDS011;16404;49.902;10.074;2023-03-23T19:29:57;6.63;;;4.05;;
29430;SDS011;16404;49.902;10.074;2023-03-23T19:32:42;7.22;;;3.88;;